sensor_id;sensor_type;location;lat;lon;timestamp;pressure;altitude;pressure_sealevel;temperature;humidity
15444;BME280;7822;48.146;11.576;2023-02-21T00:01:38;95587.59;;;14.65;53.86
15444;BME280;7822;48.146;11.576;2023-02-21T00:04:23;95588.59;;;14.64;54.09
15444;BME280;7822;48.146;11.576;2023-02-21T00:07:08;95593.81;;;14.64;54.23
15444;BME280;7822;48.146;11.576;2023-02-21T00:09:53;95586.94;;;14.63;54.08
15444;BME280;7822;48.146;11.576;2023-02-21T00:12:39;95587.91;;;14.62;54.30
15444;BME280;7822;48.146;11.576;2023-02-21T00:15:25;95584.47;;;14.62;54.70
15444;BME280;7822;48.146;11.576;2023-02-21T00:18:11;95576.63;;;14.62;54.78
15444;BME280;7822;48.146;11.576;2023-02-21T00:20:56;95579.25;;;14.62;54.73
15444;BME280;7822;48.146;11.576;2023-02-21T00:23:41;95577.56;;;14.61;54.25
15444;BME280;7822;48.146;11.576;2023-02-21T00:26:27;95572.34;;;14.61;54.72
15444;BME280;7822;48.146;11.576;2023-02-21T00:29:12;95568.13;;;14.60;54.61
15444;BME280;7822;48.146;11.576;2023-02-21T00:31:59;95573.34;;;14.60;54.87
15444;BME280;7822;48.146;11.576;2023-02-21T00:34:44;95577.56;;;14.61;54.68
15444;BME280;7822;48.146;11.576;2023-02-21T00:37:29;95576.78;;;14.60;54.87
15444;BME280;7822;48.146;11.576;2023-02-21T00:40:15;95575.94;;;14.60;54.74
15444;BME280;7822;48.146;11.576;2023-02-21T00:43:00;95576.78;;;14.60;55.00
15444;BME280;7822;48.146;11.576;2023-02-21T00:45:45;95573.34;;;14.60;54.62
15444;BME280;7822;48.146;11.576;2023-02-21T00:48:32;95573.34;;;14.60;54.74
15444;BME280;7822;48.146;11.576;2023-02-21T00:51:17;95572.50;;;14.59;54.76
15444;BME280;7822;48.146;11.576;2023-02-21T00:54:03;95562.91;;;14.60;54.92
15444;BME280;7822;48.146;11.576;2023-02-21T00:56:48;95564.66;;;14.59;54.79
15444;BME280;7822;48.146;11.576;2023-02-21T00:59:33;95558.63;;;14.59;54.90
15444;BME280;7822;48.146;11.576;2023-02-21T01:02:19;95560.41;;;14.58;54.84
15444;BME280;7822;48.146;11.576;2023-02-21T01:05:06;95555.19;;;14.58;54.91
15444;BME280;7822;48.146;11.576;2023-02-21T01:07:51;95557.69;;;14.60;54.94
15444;BME280;7822;48.146;11.576;2023-02-21T01:10:37;95557.78;;;14.58;54.69
15444;BME280;7822;48.146;11.576;2023-02-21T01:13:22;95562.06;;;14.59;54.99
15444;BME280;7822;48.146;11.576;2023-02-21T01:16:07;95555.88;;;14.60;54.62
15444;BME280;7822;48.146;11.576;2023-02-21T01:18:53;95552.44;;;14.60;54.94
15444;BME280;7822;48.146;11.576;2023-02-21T01:21:39;95549.84;;;14.60;54.85
15444;BME280;7822;48.146;11.576;2023-02-21T01:24:25;95550.66;;;14.60;54.73
15444;BME280;7822;48.146;11.576;2023-02-21T01:27:10;95547.22;;;14.60;54.94
15444;BME280;7822;48.146;11.576;2023-02-21T01:29:55;95541.03;;;14.61;54.92
15444;BME280;7822;48.146;11.576;2023-02-21T01:32:41;95537.63;;;14.60;54.89
15444;BME280;7822;48.146;11.576;2023-02-21T01:35:26;95538.56;;;14.59;55.10
15444;BME280;7822;48.146;11.576;2023-02-21T01:38:13;95534.16;;;14.60;55.15
15444;BME280;7822;48.146;11.576;2023-02-21T01:40:58;95526.47;;;14.58;55.01
15444;BME280;7822;48.146;11.576;2023-02-21T01:43:57;95523.06;;;14.58;55.21
15444;BME280;7822;48.146;11.576;2023-02-21T01:46:43;95541.19;;;14.59;55.43
15444;BME280;7822;48.146;11.576;2023-02-21T01:49:30;95540.50;;;14.57;55.26
15444;BME280;7822;48.146;11.576;2023-02-21T01:52:17;95532.66;;;14.57;55.02
15444;BME280;7822;48.146;11.576;2023-02-21T01:55:05;95522.22;;;14.57;55.16
15444;BME280;7822;48.146;11.576;2023-02-21T01:57:52;95523.06;;;14.58;55.39
15444;BME280;7822;48.146;11.576;2023-02-21T02:00:38;95520.56;;;14.56;55.40
15444;BME280;7822;48.146;11.576;2023-02-21T02:03:24;95516.16;;;14.57;55.57
15444;BME280;7822;48.146;11.576;2023-02-21T02:06:13;95517.00;;;14.57;55.69
15444;BME280;7822;48.146;11.576;2023-02-21T02:09:10;95515.34;;;14.56;55.29
15444;BME280;7822;48.146;11.576;2023-02-21T02:12:17;95510.13;;;14.56;55.24
15444;BME280;7822;48.146;11.576;2023-02-21T02:15:19;95504.09;;;14.56;55.46
15444;BME280;7822;48.146;11.576;2023-02-21T02:18:02;95499.66;;;14.56;55.11
15444;BME280;7822;48.146;11.576;2023-02-21T02:21:10;95505.88;;;14.55;55.48
15444;BME280;7822;48.146;11.576;2023-02-21T02:33:45;95497.22;;;14.55;55.47
15444;BME280;7822;48.146;11.576;2023-02-21T02:36:20;95500.66;;;14.55;55.39
15444;BME280;7822;48.146;11.576;2023-02-21T02:38:58;95494.59;;;14.55;55.51
15444;BME280;7822;48.146;11.576;2023-02-21T02:41:39;95499.81;;;14.55;55.73
15444;BME280;7822;48.146;11.576;2023-02-21T02:44:14;95495.44;;;14.55;55.47
15444;BME280;7822;48.146;11.576;2023-02-21T02:46:48;95493.66;;;14.56;55.34
15444;BME280;7822;48.146;11.576;2023-02-21T02:49:18;95498.03;;;14.55;55.63
15444;BME280;7822;48.146;11.576;2023-02-21T02:51:49;95491.84;;;14.56;55.61
15444;BME280;7822;48.146;11.576;2023-02-21T02:54:17;95484.00;;;14.56;55.49
15444;BME280;7822;48.146;11.576;2023-02-21T02:56:45;95491.84;;;14.56;55.62
15444;BME280;7822;48.146;11.576;2023-02-21T02:59:16;95484.16;;;14.55;55.67
15444;BME280;7822;48.146;11.576;2023-02-21T03:02:15;95485.00;;;14.55;55.41
15444;BME280;7822;48.146;11.576;2023-02-21T03:05:02;95484.84;;;14.57;55.90
15444;BME280;7822;48.146;11.576;2023-02-21T03:07:42;95482.22;;;14.57;55.95
15444;BME280;7822;48.146;11.576;2023-02-21T03:10:17;95488.44;;;14.56;56.08
15444;BME280;7822;48.146;11.576;2023-02-21T03:12:51;95485.81;;;14.56;55.73
15444;BME280;7822;48.146;11.576;2023-02-21T03:15:24;95485.81;;;14.56;55.69
15444;BME280;7822;48.146;11.576;2023-02-21T03:17:57;95484.00;;;14.56;55.75
15444;BME280;7822;48.146;11.576;2023-02-21T03:20:28;95484.00;;;14.56;55.95
15444;BME280;7822;48.146;11.576;2023-02-21T03:22:57;95486.63;;;14.56;55.88
15444;BME280;7822;48.146;11.576;2023-02-21T03:25:28;95487.44;;;14.57;55.89
15444;BME280;7822;48.146;11.576;2023-02-21T03:27:59;95489.38;;;14.55;55.74
15444;BME280;7822;48.146;11.576;2023-02-21T03:30:28;95498.03;;;14.55;55.88
15444;BME280;7822;48.146;11.576;2023-02-21T03:32:56;95488.44;;;14.56;55.85
15444;BME280;7822;48.146;11.576;2023-02-21T03:35:27;95491.84;;;14.56;55.90
15444;BME280;7822;48.146;11.576;2023-02-21T03:37:57;95498.88;;;14.56;55.83
15444;BME280;7822;48.146;11.576;2023-02-21T03:40:27;95494.59;;;14.55;55.75
15444;BME280;7822;48.146;11.576;2023-02-21T03:42:57;95499.66;;;14.56;55.81
15444;BME280;7822;48.146;11.576;2023-02-21T03:45:25;95493.66;;;14.56;55.93
15444;BME280;7822;48.146;11.576;2023-02-21T03:47:52;95491.03;;;14.56;55.83
15444;BME280;7822;48.146;11.576;2023-02-21T03:50:20;95491.16;;;14.54;55.78
15444;BME280;7822;48.146;11.576;2023-02-21T03:52:47;95486.78;;;14.55;55.73
15444;BME280;7822;48.146;11.576;2023-02-21T03:55:17;95487.75;;;14.54;55.88
15444;BME280;7822;48.146;11.576;2023-02-21T03:57:45;95493.78;;;14.54;55.77
15444;BME280;7822;48.146;11.576;2023-02-21T04:00:13;95493.78;;;14.54;55.78
15444;BME280;7822;48.146;11.576;2023-02-21T04:02:41;95492.97;;;14.54;56.06
15444;BME280;7822;48.146;11.576;2023-02-21T04:05:09;95492.97;;;14.54;55.90
15444;BME280;7822;48.146;11.576;2023-02-21T04:07:37;95495.59;;;14.54;55.83
15444;BME280;7822;48.146;11.576;2023-02-21T04:10:05;95492.97;;;14.54;55.77
15444;BME280;7822;48.146;11.576;2023-02-21T04:12:34;95497.22;;;14.55;56.00
15444;BME280;7822;48.146;11.576;2023-02-21T04:15:02;95499.00;;;14.54;56.31
15444;BME280;7822;48.146;11.576;2023-02-21T04:17:30;95498.19;;;14.54;55.96
15444;BME280;7822;48.146;11.576;2023-02-21T04:19:57;95496.53;;;14.53;55.99
15444;BME280;7822;48.146;11.576;2023-02-21T04:22:25;95501.59;;;14.54;55.52
15444;BME280;7822;48.146;11.576;2023-02-21T04:24:52;95498.19;;;14.54;55.97
15444;BME280;7822;48.146;11.576;2023-02-21T04:27:20;95495.59;;;14.54;55.87
15444;BME280;7822;48.146;11.576;2023-02-21T04:29:49;95499.00;;;14.54;55.63
15444;BME280;7822;48.146;11.576;2023-02-21T04:32:17;95498.19;;;14.54;55.98
15444;BME280;7822;48.146;11.576;2023-02-21T04:34:45;95495.59;;;14.54;55.96
15444;BME280;7822;48.146;11.576;2023-02-21T04:37:12;95492.13;;;14.53;55.87
15444;BME280;7822;48.146;11.576;2023-02-21T04:39:40;95487.75;;;14.54;56.09
15444;BME280;7822;48.146;11.576;2023-02-21T04:42:08;95494.59;;;14.55;56.10
15444;BME280;7822;48.146;11.576;2023-02-21T04:44:37;95492.97;;;14.54;56.14
15444;BME280;7822;48.146;11.576;2023-02-21T04:47:08;95492.00;;;14.55;56.06
15444;BME280;7822;48.146;11.576;2023-02-21T04:49:35;95492.66;;;14.57;56.02
15444;BME280;7822;48.146;11.576;2023-02-21T04:52:03;95484.00;;;14.56;56.10
15444;BME280;7822;48.146;11.576;2023-02-21T04:54:31;95486.63;;;14.56;55.93
15444;BME280;7822;48.146;11.576;2023-02-21T04:56:58;95484.00;;;14.56;56.07
15444;BME280;7822;48.146;11.576;2023-02-21T04:59:26;95485.81;;;14.56;56.04
15444;BME280;7822;48.146;11.576;2023-02-21T05:01:54;95476.16;;;14.56;55.88
15444;BME280;7822;48.146;11.576;2023-02-21T05:04:23;95476.16;;;14.56;55.88
15444;BME280;7822;48.146;11.576;2023-02-21T05:06:50;95475.38;;;14.56;55.75
15444;BME280;7822;48.146;11.576;2023-02-21T05:09:18;95470.00;;;14.57;56.15
15444;BME280;7822;48.146;11.576;2023-02-21T05:11:45;95465.63;;;14.58;56.08
15444;BME280;7822;48.146;11.576;2023-02-21T05:14:13;95463.00;;;14.58;56.07
15444;BME280;7822;48.146;11.576;2023-02-21T05:16:43;95466.41;;;14.58;56.02
15444;BME280;7822;48.146;11.576;2023-02-21T05:19:11;95461.19;;;14.58;55.90
15444;BME280;7822;48.146;11.576;2023-02-21T05:21:40;95465.31;;;14.61;56.01
15444;BME280;7822;48.146;11.576;2023-02-21T05:24:07;95460.09;;;14.61;56.03
15444;BME280;7822;48.146;11.576;2023-02-21T05:26:37;95463.53;;;14.61;55.89
15444;BME280;7822;48.146;11.576;2023-02-21T05:29:04;95459.97;;;14.62;55.94
15444;BME280;7822;48.146;11.576;2023-02-21T05:31:32;95455.69;;;14.61;56.10
15444;BME280;7822;48.146;11.576;2023-02-21T05:34:00;95460.09;;;14.61;56.07
15444;BME280;7822;48.146;11.576;2023-02-21T05:36:27;95457.34;;;14.62;56.10
15444;BME280;7822;48.146;11.576;2023-02-21T05:38:56;95453.09;;;14.61;56.29
15444;BME280;7822;48.146;11.576;2023-02-21T05:41:24;95453.09;;;14.61;56.02
15444;BME280;7822;48.146;11.576;2023-02-21T05:43:52;95465.31;;;14.61;56.12
15444;BME280;7822;48.146;11.576;2023-02-21T05:46:23;95459.28;;;14.60;56.32
15444;BME280;7822;48.146;11.576;2023-02-21T05:48:52;95461.91;;;14.60;56.05
15444;BME280;7822;48.146;11.576;2023-02-21T05:51:20;95460.09;;;14.61;56.21
15444;BME280;7822;48.146;11.576;2023-02-21T05:53:48;95456.69;;;14.60;56.46
15444;BME280;7822;48.146;11.576;2023-02-21T05:56:18;95458.31;;;14.61;56.09
15444;BME280;7822;48.146;11.576;2023-02-21T05:58:46;95453.09;;;14.61;56.09
15444;BME280;7822;48.146;11.576;2023-02-21T06:01:14;95454.75;;;14.62;56.48
15444;BME280;7822;48.146;11.576;2023-02-21T06:03:42;95458.31;;;14.61;56.39
15444;BME280;7822;48.146;11.576;2023-02-21T06:06:10;95451.31;;;14.62;55.97
15444;BME280;7822;48.146;11.576;2023-02-21T06:08:42;95451.31;;;14.62;56.19
15444;BME280;7822;48.146;11.576;2023-02-21T06:11:10;95453.91;;;14.62;56.14
15444;BME280;7822;48.146;11.576;2023-02-21T06:13:40;95452.94;;;14.63;56.12
15444;BME280;7822;48.146;11.576;2023-02-21T06:16:08;95459.81;;;14.64;56.19
15444;BME280;7822;48.146;11.576;2023-02-21T06:18:36;95458.88;;;14.65;56.12
15444;BME280;7822;48.146;11.576;2023-02-21T06:21:04;95460.50;;;14.66;56.16
15444;BME280;7822;48.146;11.576;2023-02-21T06:23:32;95459.66;;;14.65;56.33
15444;BME280;7822;48.146;11.576;2023-02-21T06:25:59;95459.66;;;14.65;55.90
15444;BME280;7822;48.146;11.576;2023-02-21T06:28:28;95461.31;;;14.66;55.79
15444;BME280;7822;48.146;11.576;2023-02-21T06:30:57;95458.72;;;14.66;56.08
15444;BME280;7822;48.146;11.576;2023-02-21T06:33:25;95452.66;;;14.66;56.07
15444;BME280;7822;48.146;11.576;2023-02-21T06:35:52;95449.09;;;14.67;56.23
15444;BME280;7822;48.146;11.576;2023-02-21T06:38:20;95458.88;;;14.65;56.32
15444;BME280;7822;48.146;11.576;2023-02-21T06:40:47;95460.50;;;14.66;56.02
15444;BME280;7822;48.146;11.576;2023-02-21T06:43:15;95464.88;;;14.65;56.39
15444;BME280;7822;48.146;11.576;2023-02-21T06:45:43;95460.66;;;14.64;56.42
15444;BME280;7822;48.146;11.576;2023-02-21T06:48:14;95468.47;;;14.64;56.26
15444;BME280;7822;48.146;11.576;2023-02-21T06:50:42;95465.88;;;14.64;56.60
15444;BME280;7822;48.146;11.576;2023-02-21T06:53:10;95474.66;;;14.63;56.13
15444;BME280;7822;48.146;11.576;2023-02-21T06:55:38;95474.66;;;14.63;56.32
15444;BME280;7822;48.146;11.576;2023-02-21T06:58:05;95478.09;;;14.64;56.62
15444;BME280;7822;48.146;11.576;2023-02-21T07:00:33;95476.44;;;14.63;56.42
15444;BME280;7822;48.146;11.576;2023-02-21T07:03:01;95472.03;;;14.63;56.34
15444;BME280;7822;48.146;11.576;2023-02-21T07:05:30;95481.53;;;14.64;56.14
15444;BME280;7822;48.146;11.576;2023-02-21T07:08:00;95487.72;;;14.63;56.51
15444;BME280;7822;48.146;11.576;2023-02-21T07:10:28;95489.38;;;14.64;56.40
15444;BME280;7822;48.146;11.576;2023-02-21T07:12:56;95482.50;;;14.63;56.28
15444;BME280;7822;48.146;11.576;2023-02-21T07:15:24;95487.72;;;14.63;56.32
15444;BME280;7822;48.146;11.576;2023-02-21T07:17:52;95490.31;;;14.63;56.21
15444;BME280;7822;48.146;11.576;2023-02-21T07:20:19;95486.75;;;14.64;56.27
15444;BME280;7822;48.146;11.576;2023-02-21T07:22:48;95489.50;;;14.63;56.25
15444;BME280;7822;48.146;11.576;2023-02-21T07:25:18;95491.16;;;14.64;56.21
15444;BME280;7822;48.146;11.576;2023-02-21T07:27:46;95492.94;;;14.63;56.40
15444;BME280;7822;48.146;11.576;2023-02-21T07:30:15;95487.72;;;14.63;56.69
15444;BME280;7822;48.146;11.576;2023-02-21T07:32:43;95492.09;;;14.63;56.64
15444;BME280;7822;48.146;11.576;2023-02-21T07:35:14;95491.31;;;14.62;56.48
15444;BME280;7822;48.146;11.576;2023-02-21T07:37:41;95488.69;;;14.62;56.57
15444;BME280;7822;48.146;11.576;2023-02-21T07:40:11;95495.69;;;14.62;56.63
15444;BME280;7822;48.146;11.576;2023-02-21T07:42:40;95494.84;;;14.61;56.54
15444;BME280;7822;48.146;11.576;2023-02-21T07:45:09;95493.09;;;14.62;56.82
15444;BME280;7822;48.146;11.576;2023-02-21T07:47:37;95491.31;;;14.62;56.43
15444;BME280;7822;48.146;11.576;2023-02-21T07:50:05;95487.84;;;14.62;56.53
15444;BME280;7822;48.146;11.576;2023-02-21T07:52:33;95494.84;;;14.61;56.49
15444;BME280;7822;48.146;11.576;2023-02-21T07:55:01;95498.16;;;14.63;56.51
15444;BME280;7822;48.146;11.576;2023-02-21T07:57:30;95501.59;;;14.64;56.33
15444;BME280;7822;48.146;11.576;2023-02-21T07:59:57;95508.59;;;14.63;56.57
15444;BME280;7822;48.146;11.576;2023-02-21T08:02:25;95503.25;;;14.65;56.42
15444;BME280;7822;48.146;11.576;2023-02-21T08:04:52;95504.22;;;14.64;56.65
15444;BME280;7822;48.146;11.576;2023-02-21T08:07:20;95505.88;;;14.65;56.57
15444;BME280;7822;48.146;11.576;2023-02-21T08:09:48;95504.06;;;14.65;56.59
15444;BME280;7822;48.146;11.576;2023-02-21T08:12:15;95498.84;;;14.65;56.57
15444;BME280;7822;48.146;11.576;2023-02-21T08:14:45;95504.06;;;14.65;56.69
15444;BME280;7822;48.146;11.576;2023-02-21T08:17:12;95506.81;;;14.64;56.37
15444;BME280;7822;48.146;11.576;2023-02-21T08:19:40;95501.59;;;14.64;56.74
15444;BME280;7822;48.146;11.576;2023-02-21T08:22:08;95507.75;;;14.63;56.92
15444;BME280;7822;48.146;11.576;2023-02-21T08:24:35;95503.53;;;14.62;56.71
15444;BME280;7822;48.146;11.576;2023-02-21T08:27:03;95506.13;;;14.62;57.00
15444;BME280;7822;48.146;11.576;2023-02-21T08:29:30;95503.53;;;14.62;56.72
15444;BME280;7822;48.146;11.576;2023-02-21T08:31:59;95506.13;;;14.62;56.74
15444;BME280;7822;48.146;11.576;2023-02-21T08:34:27;95505.97;;;14.63;56.92
15444;BME280;7822;48.146;11.576;2023-02-21T08:36:55;95509.69;;;14.61;56.91
15444;BME280;7822;48.146;11.576;2023-02-21T08:39:23;95507.91;;;14.61;56.92
15444;BME280;7822;48.146;11.576;2023-02-21T08:41:50;95503.69;;;14.60;57.33
15444;BME280;7822;48.146;11.576;2023-02-21T08:44:18;95516.56;;;14.62;57.17
15444;BME280;7822;48.146;11.576;2023-02-21T08:46:48;95507.91;;;14.61;57.21
15444;BME280;7822;48.146;11.576;2023-02-21T08:49:17;95513.13;;;14.61;56.84
15444;BME280;7822;48.146;11.576;2023-02-21T08:51:44;95511.34;;;14.62;57.17
15444;BME280;7822;48.146;11.576;2023-02-21T08:54:12;95511.50;;;14.60;57.02
15444;BME280;7822;48.146;11.576;2023-02-21T08:56:40;95511.34;;;14.62;57.12
15444;BME280;7822;48.146;11.576;2023-02-21T08:59:08;95517.53;;;14.61;57.03
15444;BME280;7822;48.146;11.576;2023-02-21T09:01:36;95518.50;;;14.60;57.33
15444;BME280;7822;48.146;11.576;2023-02-21T09:04:04;95515.91;;;14.60;57.05
15444;BME280;7822;48.146;11.576;2023-02-21T09:06:33;95514.13;;;14.60;57.17
15444;BME280;7822;48.146;11.576;2023-02-21T09:09:01;95514.13;;;14.60;57.29
15444;BME280;7822;48.146;11.576;2023-02-21T09:11:29;95513.28;;;14.60;56.86
15444;BME280;7822;48.146;11.576;2023-02-21T09:13:56;95513.28;;;14.60;57.24
15444;BME280;7822;48.146;11.576;2023-02-21T09:16:24;95510.69;;;14.60;57.23
15444;BME280;7822;48.146;11.576;2023-02-21T09:18:53;95508.19;;;14.58;57.22
15444;BME280;7822;48.146;11.576;2023-02-21T09:21:22;95514.13;;;14.60;57.18
15444;BME280;7822;48.146;11.576;2023-02-21T09:23:55;95515.06;;;14.59;57.04
15444;BME280;7822;48.146;11.576;2023-02-21T09:26:25;95508.19;;;14.58;57.45
15444;BME280;7822;48.146;11.576;2023-02-21T09:28:57;95508.19;;;14.58;57.29
15444;BME280;7822;48.146;11.576;2023-02-21T09:31:25;95511.50;;;14.60;57.36
15444;BME280;7822;48.146;11.576;2023-02-21T09:33:52;95506.28;;;14.60;57.50
15444;BME280;7822;48.146;11.576;2023-02-21T09:36:21;95507.22;;;14.59;57.20
15444;BME280;7822;48.146;11.576;2023-02-21T09:38:49;95500.22;;;14.60;57.26
15444;BME280;7822;48.146;11.576;2023-02-21T09:41:19;95510.69;;;14.60;57.20
15444;BME280;7822;48.146;11.576;2023-02-21T09:43:49;95506.28;;;14.60;57.09
15444;BME280;7822;48.146;11.576;2023-02-21T09:46:23;95501.06;;;14.60;57.09
15444;BME280;7822;48.146;11.576;2023-02-21T09:48:55;95509.69;;;14.61;56.94
15444;BME280;7822;48.146;11.576;2023-02-21T09:51:23;95502.00;;;14.59;57.26
15444;BME280;7822;48.146;11.576;2023-02-21T09:53:53;95507.09;;;14.61;57.01
15444;BME280;7822;48.146;11.576;2023-02-21T09:56:27;95504.47;;;14.61;57.28
15444;BME280;7822;48.146;11.576;2023-02-21T09:58:56;95512.31;;;14.61;57.05
15444;BME280;7822;48.146;11.576;2023-02-21T10:01:46;95503.69;;;14.60;57.24
15444;BME280;7822;48.146;11.576;2023-02-21T10:04:24;95506.13;;;14.62;57.10
15444;BME280;7822;48.146;11.576;2023-02-21T10:06:59;95503.53;;;14.62;57.00
15444;BME280;7822;48.146;11.576;2023-02-21T10:09:37;95499.13;;;14.62;57.17
15444;BME280;7822;48.146;11.576;2023-02-21T10:12:18;95496.63;;;14.61;57.21
15444;BME280;7822;48.146;11.576;2023-02-21T10:15:01;95491.31;;;14.62;57.32
15444;BME280;7822;48.146;11.576;2023-02-21T10:17:38;95493.91;;;14.62;57.26
15444;BME280;7822;48.146;11.576;2023-02-21T10:20:13;95485.25;;;14.62;56.96
15444;BME280;7822;48.146;11.576;2023-02-21T10:22:44;95486.06;;;14.62;57.24
15444;BME280;7822;48.146;11.576;2023-02-21T10:25:20;95492.25;;;14.61;57.42
15444;BME280;7822;48.146;11.576;2023-02-21T10:27:51;95490.63;;;14.60;57.07
15444;BME280;7822;48.146;11.576;2023-02-21T10:30:26;95494.84;;;14.61;57.68
15444;BME280;7822;48.146;11.576;2023-02-21T10:32:56;95494.03;;;14.61;57.46
15444;BME280;7822;48.146;11.576;2023-02-21T10:35:24;95496.63;;;14.61;57.28
15444;BME280;7822;48.146;11.576;2023-02-21T10:37:53;95496.63;;;14.61;57.25
15444;BME280;7822;48.146;11.576;2023-02-21T10:40:28;95492.25;;;14.61;57.14
15444;BME280;7822;48.146;11.576;2023-02-21T10:43:03;95494.03;;;14.61;57.39
15444;BME280;7822;48.146;11.576;2023-02-21T10:45:36;95491.41;;;14.61;57.28
15444;BME280;7822;48.146;11.576;2023-02-21T10:48:06;95493.09;;;14.62;57.37
15444;BME280;7822;48.146;11.576;2023-02-21T10:50:41;95487.84;;;14.62;57.24
15444;BME280;7822;48.146;11.576;2023-02-21T10:53:23;95487.03;;;14.61;57.52
15444;BME280;7822;48.146;11.576;2023-02-21T10:56:27;95485.25;;;14.62;57.41
15444;BME280;7822;48.146;11.576;2023-02-21T10:58:58;95485.25;;;14.62;57.48
15444;BME280;7822;48.146;11.576;2023-02-21T11:01:37;95483.59;;;14.61;57.68
15444;BME280;7822;48.146;11.576;2023-02-21T11:04:23;95481.81;;;14.61;57.49
15444;BME280;7822;48.146;11.576;2023-02-21T11:06:54;95473.16;;;14.61;57.55
15444;BME280;7822;48.146;11.576;2023-02-21T11:09:29;95472.19;;;14.62;57.59
15444;BME280;7822;48.146;11.576;2023-02-21T11:12:04;95469.72;;;14.60;57.44
15444;BME280;7822;48.146;11.576;2023-02-21T11:14:34;95473.16;;;14.61;57.21
15444;BME280;7822;48.146;11.576;2023-02-21T11:17:08;95460.91;;;14.61;57.25
15444;BME280;7822;48.146;11.576;2023-02-21T11:19:48;95462.69;;;14.61;57.51
15444;BME280;7822;48.146;11.576;2023-02-21T11:22:18;95450.47;;;14.61;57.63
15444;BME280;7822;48.146;11.576;2023-02-21T11:24:56;95453.91;;;14.62;57.38
15444;BME280;7822;48.146;11.576;2023-02-21T11:27:26;95450.31;;;14.63;57.32
15444;BME280;7822;48.146;11.576;2023-02-21T11:29:56;95454.59;;;14.64;57.48
15444;BME280;7822;48.146;11.576;2023-02-21T11:32:27;95446.75;;;14.64;57.42
15444;BME280;7822;48.146;11.576;2023-02-21T11:35:01;95439.88;;;14.63;57.45
15444;BME280;7822;48.146;11.576;2023-02-21T11:37:29;95425.03;;;14.63;57.47
15444;BME280;7822;48.146;11.576;2023-02-21T11:39:58;95432.03;;;14.63;57.49
15444;BME280;7822;48.146;11.576;2023-02-21T11:42:29;95425.88;;;14.64;57.55
15444;BME280;7822;48.146;11.576;2023-02-21T11:45:10;95420.81;;;14.62;57.42
15444;BME280;7822;48.146;11.576;2023-02-21T11:47:45;95418.88;;;14.64;57.43
15444;BME280;7822;48.146;11.576;2023-02-21T11:50:18;95412.81;;;14.64;57.45
15444;BME280;7822;48.146;11.576;2023-02-21T11:52:51;95404.97;;;14.64;57.41
15444;BME280;7822;48.146;11.576;2023-02-21T11:55:22;95398.09;;;14.63;57.52
15444;BME280;7822;48.146;11.576;2023-02-21T11:58:00;95401.53;;;14.63;57.59
15444;BME280;7822;48.146;11.576;2023-02-21T12:00:39;95394.69;;;14.62;57.44
15444;BME280;7822;48.146;11.576;2023-02-21T12:03:29;95388.50;;;14.63;57.54
15444;BME280;7822;48.146;11.576;2023-02-21T12:06:04;95385.88;;;14.63;57.31
15444;BME280;7822;48.146;11.576;2023-02-21T12:08:44;95384.25;;;14.62;57.54
15444;BME280;7822;48.146;11.576;2023-02-21T12:14:32;95376.28;;;14.64;57.51
15444;BME280;7822;48.146;11.576;2023-02-21T12:17:11;95378.03;;;14.63;57.63
15444;BME280;7822;48.146;11.576;2023-02-21T12:20:02;95378.03;;;14.63;57.61
15444;BME280;7822;48.146;11.576;2023-02-21T12:22:48;95372.81;;;14.63;57.80
15444;BME280;7822;48.146;11.576;2023-02-21T12:25:22;95369.94;;;14.66;57.65
15444;BME280;7822;48.146;11.576;2023-02-21T12:27:59;95363.06;;;14.65;57.41
15444;BME280;7822;48.146;11.576;2023-02-21T12:30:41;95359.50;;;14.66;57.52
15444;BME280;7822;48.146;11.576;2023-02-21T12:33:22;95355.91;;;14.67;57.64
15444;BME280;7822;48.146;11.576;2023-02-21T12:36:03;95345.59;;;14.66;57.51
15444;BME280;7822;48.146;11.576;2023-02-21T12:38:52;95348.22;;;14.66;57.78
15444;BME280;7822;48.146;11.576;2023-02-21T12:41:29;95340.38;;;14.66;57.70
15444;BME280;7822;48.146;11.576;2023-02-21T12:44:11;95344.66;;;14.67;57.46
15444;BME280;7822;48.146;11.576;2023-02-21T12:46:44;95336.00;;;14.66;57.55
15444;BME280;7822;48.146;11.576;2023-02-21T12:49:20;95329.78;;;14.67;57.27
15444;BME280;7822;48.146;11.576;2023-02-21T12:51:54;95331.44;;;14.68;57.56
15444;BME280;7822;48.146;11.576;2023-02-21T12:54:35;95334.06;;;14.68;57.46
15444;BME280;7822;48.146;11.576;2023-02-21T12:57:07;95326.06;;;14.70;57.58
15444;BME280;7822;48.146;11.576;2023-02-21T12:59:47;95323.47;;;14.70;57.59
15444;BME280;7822;48.146;11.576;2023-02-21T13:02:23;95320.19;;;14.68;57.21
15444;BME280;7822;48.146;11.576;2023-02-21T13:04:56;95314.44;;;14.64;55.91
15444;BME280;7822;48.146;11.576;2023-02-21T13:07:32;95312.09;;;14.61;53.91
15444;BME280;7822;48.146;11.576;2023-02-21T13:10:04;95307.03;;;14.60;53.82
15444;BME280;7822;48.146;11.576;2023-02-21T13:12:37;95303.59;;;14.59;53.24
15444;BME280;7822;48.146;11.576;2023-02-21T13:15:15;95302.09;;;14.57;51.60
15444;BME280;7822;48.146;11.576;2023-02-21T13:17:49;95294.41;;;14.55;50.35
15444;BME280;7822;48.146;11.576;2023-02-21T13:20:21;95298.81;;;14.55;49.74
15444;BME280;7822;48.146;11.576;2023-02-21T13:26:46;95285.56;;;14.66;50.06
15444;BME280;7822;48.146;11.576;2023-02-21T13:29:19;95284.88;;;14.64;49.99
15444;BME280;7822;48.146;11.576;2023-02-21T13:31:57;95276.38;;;14.62;50.74
15444;BME280;7822;48.146;11.576;2023-02-21T13:34:27;95277.22;;;14.62;51.00
15444;BME280;7822;48.146;11.576;2023-02-21T13:37:02;95264.94;;;14.63;51.73
15444;BME280;7822;48.146;11.576;2023-02-21T13:39:32;95272.09;;;14.61;51.06
15444;BME280;7822;48.146;11.576;2023-02-21T13:42:06;95269.50;;;14.61;50.79
15444;BME280;7822;48.146;11.576;2023-02-21T13:44:38;95268.97;;;14.57;49.89
15444;BME280;7822;48.146;11.576;2023-02-21T13:47:12;95262.09;;;14.56;49.52
15444;BME280;7822;48.146;11.576;2023-02-21T13:49:48;95257.88;;;14.55;50.21
15444;BME280;7822;48.146;11.576;2023-02-21T13:52:35;95259.50;;;14.56;50.18